Time;durP1;ratioP1;P1;durP2;ratioP2;P2;SDS_P1;SDS_P2;PMS_P1;PMS_P2;Temp;Humidity;BMP_temperature;BMP_pressure;BME280_temperature;BME280_humidity;BME280_pressure;Samples;Min_cycle;Max_cycle;Signal;HPM_P1;HPM_P2
2023/09/23 00:01:52;;;;;;;6.43;3.80;;;;;;;-146.27;86.95;82681.50;5045797;28;20062;-68
2023/09/23 00:04:18;;;;;;;4.75;3.65;;;;;;;-146.27;86.99;82675.47;5048467;28;20029;-69
2023/09/23 00:06:44;;;;;;;9.40;3.88;;;;;;;-146.27;87.05;82681.50;5048909;28;20094;-68
2023/09/23 00:09:10;;;;;;;5.38;3.50;;;;;;;-146.27;87.13;82679.50;5038129;28;20476;-67
2023/09/23 00:11:37;;;;;;;3.33;2.20;;;;;;;-146.27;86.80;82665.44;5039237;28;20053;-68
2023/09/23 00:14:04;;;;;;;6.35;1.90;;;;;;;-146.27;86.64;82689.53;5036477;28;20508;-68
2023/09/23 00:16:29;;;;;;;2.40;1.80;;;;;;;-146.27;86.50;82657.41;5050634;28;20363;-68
2023/09/23 00:18:56;;;;;;;3.85;2.13;;;;;;;-146.27;87.02;82725.69;5038005;28;20025;-68
2023/09/23 00:21:21;;;;;;;2.92;1.50;;;;;;;-146.27;86.73;82725.69;5046266;28;20028;-68
2023/09/23 00:23:47;;;;;;;2.75;1.20;;;;;;;-146.27;86.05;82725.69;5033957;28;20028;-68
2023/09/23 00:26:17;;;;;;;2.47;1.55;;;;;;;-146.27;86.46;82729.72;5053117;28;20609;-67
2023/09/23 00:28:43;;;;;;;2.15;1.40;;;;;;;-146.27;86.49;82725.69;5041171;28;20403;-68
2023/09/23 00:31:14;;;;;;;6.78;1.25;;;;;;;-146.27;86.28;82743.78;5038920;28;20538;-67
2023/09/23 00:33:40;;;;;;;2.95;1.42;;;;;;;-146.27;86.28;82753.81;5031241;28;20021;-67
2023/09/23 00:36:07;;;;;;;5.50;1.30;;;;;;;-146.27;86.37;82743.78;5045792;28;20491;-68
2023/09/23 00:38:33;;;;;;;3.58;1.42;;;;;;;-146.27;86.46;82789.97;5052699;28;20051;-67
2023/09/23 00:40:59;;;;;;;7.55;2.63;;;;;;;-146.27;87.33;82854.28;5045760;28;20060;-68
2023/09/23 00:43:24;;;;;;;7.70;2.88;;;;;;;-146.27;87.07;82777.94;5045615;28;20507;-67
2023/09/23 00:45:54;;;;;;;4.07;2.67;;;;;;;-146.27;87.00;82769.91;5046718;28;20598;-67
2023/09/23 00:48:23;;;;;;;10.32;4.38;;;;;;;-146.27;86.97;82777.94;5057288;28;20028;-67
2023/09/23 00:50:50;;;;;;;9.02;5.15;;;;;;;-146.27;87.29;82767.88;5047597;28;20048;-70
2023/09/23 00:53:16;;;;;;;11.15;7.22;;;;;;;-146.27;87.06;82733.72;5040987;28;20093;-70
2023/09/23 00:55:49;;;;;;;13.25;7.95;;;;;;;-146.27;87.29;82741.78;5041117;28;20033;-69
2023/09/23 00:58:15;;;;;;;16.17;10.35;;;;;;;-146.27;87.62;82731.72;5040205;28;20032;-69
2023/09/23 01:00:43;;;;;;;15.32;11.32;;;;;;;-146.27;87.67;82761.84;5041234;28;20116;-69
2023/09/23 01:03:11;;;;;;;17.50;11.88;;;;;;;-146.27;87.66;82725.69;5042798;28;20025;-69
2023/09/23 01:05:39;;;;;;;26.20;14.30;;;;;;;-146.27;87.51;82689.53;5039347;28;20036;-69
2023/09/23 01:08:06;;;;;;;24.35;13.95;;;;;;;-146.27;87.54;82703.59;5041604;28;20052;-69
2023/09/23 01:10:31;;;;;;;23.63;14.95;;;;;;;-146.27;87.56;82697.56;5042001;28;20358;-69
2023/09/23 01:12:57;;;;;;;22.20;14.38;;;;;;;-146.27;87.48;82709.63;5043291;28;20036;-69
2023/09/23 01:15:28;;;;;;;26.80;14.32;;;;;;;-146.27;87.59;82679.50;5048544;28;20554;-69
2023/09/23 01:17:54;;;;;;;20.80;14.48;;;;;;;-146.27;87.81;82709.63;5037662;28;20043;-69
2023/09/23 01:20:23;;;;;;;26.38;14.98;;;;;;;-146.27;87.75;82691.53;5049101;28;20033;-69
2023/09/23 01:22:49;;;;;;;27.58;15.45;;;;;;;-146.27;88.06;82729.72;5044584;28;20021;-69
2023/09/23 01:25:14;;;;;;;24.65;15.15;;;;;;;-146.27;87.81;82693.56;5044218;28;20031;-69
2023/09/23 01:27:40;;;;;;;24.52;15.32;;;;;;;-146.27;88.37;82681.50;5047834;28;20047;-69
2023/09/23 01:30:07;;;;;;;27.77;16.05;;;;;;;-146.27;88.02;82727.72;5050074;28;20079;-69
2023/09/23 01:32:45;;;;;;;28.35;15.50;;;;;;;-146.27;88.07;82729.72;5040478;28;20055;-69
2023/09/23 01:35:12;;;;;;;25.23;15.88;;;;;;;-146.27;88.08;82715.66;5048431;28;20108;-69
2023/09/23 01:37:38;;;;;;;24.75;14.55;;;;;;;-146.27;88.13;82725.69;5049264;28;20120;-71
2023/09/23 01:40:05;;;;;;;26.75;14.30;;;;;;;-146.27;87.98;82725.69;5045906;28;20108;-69
2023/09/23 01:42:32;;;;;;;24.50;13.02;;;;;;;-146.27;87.92;82709.63;5037374;28;20029;-70
2023/09/23 01:44:58;;;;;;;22.55;12.77;;;;;;;-146.27;87.92;82693.56;5046360;28;20029;-70
2023/09/23 01:47:23;;;;;;;32.13;14.85;;;;;;;-146.27;87.79;82691.53;5046693;28;20473;-70
2023/09/23 01:49:49;;;;;;;24.88;13.43;;;;;;;-146.27;87.87;82693.56;5049035;28;20033;-70
2023/09/23 01:52:17;;;;;;;25.63;14.82;;;;;;;-146.27;88.07;82691.53;5043442;28;20029;-70
2023/09/23 01:54:47;;;;;;;28.33;14.70;;;;;;;-146.27;87.97;82671.47;5040791;28;20037;-70
2023/09/23 01:57:16;;;;;;;23.52;13.15;;;;;;;-146.27;87.86;82617.22;5047095;28;20024;-69
2023/09/23 01:59:45;;;;;;;22.02;13.05;;;;;;;-146.27;88.14;82689.53;5040362;28;20041;-68
2023/09/23 02:02:11;;;;;;;31.15;13.20;;;;;;;-146.27;88.32;82687.53;5036127;28;20661;-68
2023/09/23 02:04:39;;;;;;;21.67;11.88;;;;;;;-146.27;88.48;82701.59;5041510;28;20475;-68
2023/09/23 02:07:06;;;;;;;28.65;11.65;;;;;;;-146.27;88.87;82707.63;5039464;28;20452;-68
2023/09/23 02:09:33;;;;;;;19.20;10.15;;;;;;;-146.27;89.06;82743.78;5031201;28;20469;-67
2023/09/23 02:11:59;;;;;;;16.45;9.82;;;;;;;-146.27;88.70;82733.72;5032984;28;20017;-67
2023/09/23 02:14:24;;;;;;;20.48;9.00;;;;;;;-146.27;89.13;82729.72;5044342;28;20082;-68
2023/09/23 02:16:51;;;;;;;20.23;7.70;;;;;;;-146.27;88.58;82713.66;5052979;28;20481;-67
2023/09/23 02:19:18;;;;;;;12.02;7.07;;;;;;;-146.27;88.56;82755.84;5043664;28;20477;-68
2023/09/23 02:21:43;;;;;;;18.13;6.88;;;;;;;-146.27;88.29;82697.56;5037929;28;20040;-68
2023/09/23 02:24:08;;;;;;;9.60;5.50;;;;;;;-146.27;88.20;82745.78;5045056;28;20024;-68
2023/09/23 02:26:34;;;;;;;10.13;5.15;;;;;;;-146.27;88.40;82741.78;5041652;28;20033;-69
2023/09/23 02:28:59;;;;;;;13.50;4.95;;;;;;;-146.27;88.21;82773.91;5045911;28;20027;-67
2023/09/23 02:31:24;;;;;;;7.35;4.45;;;;;;;-146.27;88.05;82747.78;5032803;28;20028;-67
2023/09/23 02:33:50;;;;;;;9.18;3.92;;;;;;;-146.27;88.95;82798.03;5039058;28;20335;-67
2023/09/23 02:36:15;;;;;;;6.05;3.00;;;;;;;-146.27;88.31;82769.91;5041629;28;20064;-67
2023/09/23 02:38:44;;;;;;;6.70;3.35;;;;;;;-146.27;88.44;82792.00;5038614;28;20032;-67
2023/09/23 02:41:09;;;;;;;5.93;2.72;;;;;;;-146.27;88.46;82787.97;5032933;28;20073;-67
2023/09/23 02:43:35;;;;;;;7.93;2.60;;;;;;;-146.27;88.72;82808.06;5039265;28;20060;-68
2023/09/23 02:46:01;;;;;;;6.25;2.83;;;;;;;-146.27;88.52;82785.97;5047971;28;20033;-67
2023/09/23 02:48:27;;;;;;;5.45;3.10;;;;;;;-146.27;88.59;82798.03;5047252;28;20064;-67
2023/09/23 02:50:53;;;;;;;8.00;2.60;;;;;;;-146.27;88.59;82755.84;5040825;28;20108;-67
2023/09/23 02:53:19;;;;;;;8.05;2.72;;;;;;;-146.27;88.15;82769.91;5041742;28;20401;-67
2023/09/23 02:55:51;;;;;;;7.35;3.03;;;;;;;-146.27;88.25;82757.84;5040154;28;20020;-67
2023/09/23 02:58:18;;;;;;;15.40;3.57;;;;;;;-146.27;88.35;82765.88;5038905;28;20140;-67
2023/09/23 03:00:57;;;;;;;7.88;2.85;;;;;;;-146.27;88.23;82725.69;5050738;28;20040;-68
2023/09/23 03:03:27;;;;;;;6.28;2.70;;;;;;;-146.27;88.21;82725.69;5045184;28;20095;-67
2023/09/23 03:05:57;;;;;;;6.55;2.45;;;;;;;-146.27;88.16;82757.84;5046327;28;20035;-68
2023/09/23 03:08:26;;;;;;;11.45;2.85;;;;;;;-146.27;88.08;82759.84;5043910;28;20079;-67
2023/09/23 03:10:52;;;;;;;8.05;2.88;;;;;;;-146.27;88.56;82773.91;5038627;28;20029;-68
2023/09/23 03:13:23;;;;;;;4.90;3.30;;;;;;;-146.27;88.44;82755.84;5044783;28;20028;-67
2023/09/23 03:16:05;;;;;;;4.50;2.97;;;;;;;-146.27;88.92;82810.06;5049949;28;20052;-67
2023/09/23 03:18:54;;;;;;;5.68;3.13;;;;;;;-146.27;89.05;82828.16;5034297;28;20049;-67
2023/09/23 03:21:20;;;;;;;5.70;2.83;;;;;;;-146.27;88.90;82810.06;5044210;28;20874;-68
2023/09/23 03:23:45;;;;;;;6.18;3.90;;;;;;;-146.27;89.68;82806.06;5035697;28;20083;-67
2023/09/23 03:26:11;;;;;;;10.68;3.13;;;;;;;-146.27;89.21;82781.94;5039785;28;20104;-67
2023/09/23 03:28:38;;;;;;;4.82;2.78;;;;;;;-146.27;89.63;82820.13;5045260;28;20030;-67
2023/09/23 03:31:05;;;;;;;10.63;3.17;;;;;;;-146.27;89.17;82749.81;5043396;28;20022;-67
2023/09/23 03:33:31;;;;;;;7.15;2.30;;;;;;;-146.27;88.71;82729.72;5038448;28;20021;-68
2023/09/23 03:35:56;;;;;;;7.53;2.50;;;;;;;-146.27;88.59;82741.78;5047153;28;20098;-67
2023/09/23 03:38:22;;;;;;;9.90;2.10;;;;;;;-146.27;88.10;82749.81;5050314;28;20029;-67
2023/09/23 03:40:59;;;;;;;6.78;2.58;;;;;;;-146.27;88.17;82749.81;5049414;28;20051;-68
2023/09/23 03:43:25;;;;;;;6.40;2.08;;;;;;;-146.27;88.32;82765.88;5047097;28;20828;-67
2023/09/23 03:45:52;;;;;;;4.07;2.60;;;;;;;-146.27;88.25;82755.84;5047400;28;20033;-67
2023/09/23 03:48:18;;;;;;;6.03;2.40;;;;;;;-146.27;88.27;82709.63;5052810;28;20499;-68
2023/09/23 03:50:44;;;;;;;7.40;2.47;;;;;;;-146.27;88.15;82689.53;5042446;28;20030;-67
2023/09/23 03:53:11;;;;;;;9.40;2.80;;;;;;;-146.27;88.21;82735.75;5043492;28;20123;-68
2023/09/23 03:55:37;;;;;;;6.72;2.75;;;;;;;-146.27;88.05;82717.66;5045874;28;20040;-68
2023/09/23 03:58:03;;;;;;;7.07;3.45;;;;;;;-146.27;88.05;82711.63;5049396;28;20036;-68
2023/09/23 04:00:29;;;;;;;11.82;4.18;;;;;;;-146.27;88.63;82737.75;5050880;28;20497;-67
2023/09/23 04:02:55;;;;;;;7.75;4.40;;;;;;;-146.27;88.40;82701.59;5049829;28;20036;-67
2023/09/23 04:05:23;;;;;;;7.20;4.15;;;;;;;-146.27;88.29;82705.59;5044926;28;20056;-68
2023/09/23 04:07:50;;;;;;;7.25;5.13;;;;;;;-146.27;88.46;82713.66;5042417;28;20036;-67
2023/09/23 04:10:19;;;;;;;7.78;5.10;;;;;;;-146.27;88.39;82687.53;5031682;28;20026;-67
2023/09/23 04:12:45;;;;;;;9.70;5.07;;;;;;;-146.27;88.64;82701.59;5047179;28;20096;-67
2023/09/23 04:15:11;;;;;;;20.50;6.97;;;;;;;-146.27;88.48;82721.69;5037978;28;20041;-68
2023/09/23 04:17:37;;;;;;;14.07;6.65;;;;;;;-146.27;88.71;82673.47;5035026;28;20044;-69
2023/09/23 04:20:11;;;;;;;19.38;7.25;;;;;;;-146.27;88.81;82699.59;5048726;28;20439;-70
2023/09/23 04:22:38;;;;;;;14.43;7.05;;;;;;;-146.27;88.58;82705.59;5032467;28;20111;-69
2023/09/23 04:25:05;;;;;;;15.25;6.97;;;;;;;-146.27;88.48;82705.59;5047288;28;20025;-70
2023/09/23 04:27:32;;;;;;;17.25;7.75;;;;;;;-146.27;88.85;82729.72;5049067;28;20024;-69
2023/09/23 04:29:58;;;;;;;14.23;7.32;;;;;;;-146.27;88.63;82719.66;5044978;28;20063;-69
2023/09/23 04:32:24;;;;;;;12.77;7.22;;;;;;;-146.27;88.66;82725.69;5041534;28;20036;-69
2023/09/23 04:34:50;;;;;;;17.70;7.07;;;;;;;-146.27;88.76;82729.72;5042370;28;20025;-69
2023/09/23 04:37:15;;;;;;;14.93;7.85;;;;;;;-146.27;88.69;82713.66;5048159;28;20021;-69
2023/09/23 04:39:40;;;;;;;17.92;7.32;;;;;;;-146.27;88.63;82693.56;5046421;28;20443;-69
2023/09/23 04:42:06;;;;;;;13.40;7.18;;;;;;;-146.27;88.56;82721.69;5033479;28;20033;-69
2023/09/23 04:44:32;;;;;;;11.82;7.35;;;;;;;-146.27;88.50;82741.78;5032784;28;20021;-69
2023/09/23 04:46:57;;;;;;;13.27;7.43;;;;;;;-146.27;88.58;82715.66;5043228;28;20037;-69
2023/09/23 04:49:23;;;;;;;14.85;7.50;;;;;;;-146.27;88.50;82707.63;5031157;28;20025;-69
2023/09/23 04:51:49;;;;;;;11.75;6.63;;;;;;;-146.27;88.51;82737.75;5042181;28;20504;-69
2023/09/23 04:54:14;;;;;;;15.77;6.70;;;;;;;-146.27;88.56;82741.78;5038906;28;20022;-68
2023/09/23 04:56:41;;;;;;;18.20;7.50;;;;;;;-146.27;88.38;82729.72;5046285;28;20485;-69
2023/09/23 04:59:07;;;;;;;11.73;6.60;;;;;;;-146.27;88.40;82733.72;5044324;28;20496;-68
2023/09/23 05:01:32;;;;;;;11.20;6.35;;;;;;;-146.27;88.48;82741.78;5051728;28;20029;-69
2023/09/23 05:03:59;;;;;;;11.63;6.85;;;;;;;-146.27;88.59;82701.59;5035711;28;20034;-69
2023/09/23 05:06:27;;;;;;;10.20;6.72;;;;;;;-146.27;88.97;82761.84;5043583;28;20052;-72
2023/09/23 05:08:55;;;;;;;11.38;5.63;;;;;;;-146.27;88.84;82725.69;5047571;28;20123;-69
2023/09/23 05:11:20;;;;;;;12.10;5.57;;;;;;;-146.27;88.62;82729.72;5040388;28;20392;-69
2023/09/23 05:13:45;;;;;;;15.65;6.10;;;;;;;-146.27;88.80;82749.81;5039114;28;20035;-69
2023/09/23 05:16:11;;;;;;;13.82;5.72;;;;;;;-146.27;88.93;82747.78;5047179;28;20053;-68
2023/09/23 05:18:36;;;;;;;7.45;5.57;;;;;;;-146.27;88.84;82695.56;5041048;28;20025;-68
2023/09/23 05:21:02;;;;;;;17.70;6.07;;;;;;;-146.27;88.84;82709.63;5047285;28;20025;-69
2023/09/23 05:23:28;;;;;;;15.20;5.10;;;;;;;-146.27;88.63;82729.72;5040428;28;20108;-69
2023/09/23 05:25:57;;;;;;;8.68;4.82;;;;;;;-146.27;88.75;82713.66;5039644;28;20114;-69
2023/09/23 05:28:23;;;;;;;10.82;4.90;;;;;;;-146.27;88.86;82725.69;5029962;28;20360;-68
2023/09/23 05:30:48;;;;;;;11.77;4.90;;;;;;;-146.27;89.11;82721.69;5036896;28;20096;-70
2023/09/23 05:33:15;;;;;;;11.35;4.65;;;;;;;-146.27;88.95;82689.53;5044470;28;20029;-68
2023/09/23 05:35:40;;;;;;;9.88;4.85;;;;;;;-146.27;89.23;82725.69;5048485;28;20029;-68
2023/09/23 05:38:07;;;;;;;15.27;4.55;;;;;;;-146.27;89.29;82729.72;5048805;28;20226;-68
2023/09/23 05:40:36;;;;;;;14.10;6.03;;;;;;;-146.27;89.31;82687.53;5044168;28;20032;-68
2023/09/23 05:43:03;;;;;;;16.40;5.10;;;;;;;-146.27;89.48;82705.59;5034741;28;20033;-68
2023/09/23 05:45:29;;;;;;;11.18;5.20;;;;;;;-146.27;89.24;82685.50;5037831;28;20580;-68
2023/09/23 05:47:55;;;;;;;10.35;4.93;;;;;;;-146.27;89.22;82653.38;5039306;28;20081;-69
2023/09/23 05:50:21;;;;;;;11.27;5.00;;;;;;;-146.27;89.18;82661.41;5033082;28;20036;-68
2023/09/23 05:52:47;;;;;;;12.77;4.53;;;;;;;-146.27;89.10;82649.34;5042885;28;20457;-68
2023/09/23 05:55:14;;;;;;;9.80;4.47;;;;;;;-146.27;89.16;82693.56;5055329;28;20051;-68
2023/09/23 05:57:40;;;;;;;8.63;4.32;;;;;;;-146.27;89.24;82665.44;5033086;28;20036;-69
2023/09/23 06:00:10;;;;;;;10.02;4.00;;;;;;;-146.27;88.97;82653.38;5036806;28;20094;-68
2023/09/23 06:02:37;;;;;;;10.02;3.72;;;;;;;-146.27;89.12;82633.28;5034582;28;20056;-68
2023/09/23 06:05:03;;;;;;;7.93;3.85;;;;;;;-146.27;89.05;82609.19;5043492;28;20021;-68
2023/09/23 06:07:29;;;;;;;5.97;3.60;;;;;;;-146.27;89.03;82605.16;5039152;28;20491;-68
2023/09/23 06:09:55;;;;;;;13.10;3.95;;;;;;;-146.27;89.62;82689.53;5048177;28;20053;-68
2023/09/23 06:12:21;;;;;;;9.45;3.58;;;;;;;-146.27;89.75;82649.34;5036196;28;20476;-67
2023/09/23 06:14:46;;;;;;;13.98;3.70;;;;;;;-146.27;89.56;82651.38;5043884;28;20055;-68
2023/09/23 06:17:11;;;;;;;8.98;3.05;;;;;;;-146.27;89.48;82637.31;5039153;28;20477;-68
2023/09/23 06:19:37;;;;;;;7.45;2.83;;;;;;;-146.27;89.38;82663.41;5036744;28;20493;-67
2023/09/23 06:22:02;;;;;;;10.18;2.30;;;;;;;-146.27;89.22;82621.22;5036553;28;20534;-67
2023/09/23 06:24:28;;;;;;;10.60;3.10;;;;;;;-146.27;88.80;82613.19;5046126;28;20152;-69
2023/09/23 06:26:54;;;;;;;10.27;3.67;;;;;;;-146.27;89.17;82655.38;5041417;28;20056;-67
2023/09/23 06:29:19;;;;;;;7.63;2.85;;;;;;;-146.27;88.97;82629.28;5042343;28;20021;-66
2023/09/23 06:31:45;;;;;;;13.55;3.00;;;;;;;-146.27;88.76;82591.09;5042599;28;20021;-66
2023/09/23 06:34:10;;;;;;;11.05;3.22;;;;;;;-146.27;88.64;82593.09;5050729;28;20047;-67
2023/09/23 06:36:35;;;;;;;8.95;3.25;;;;;;;-146.27;88.55;82591.09;5037009;28;20029;-66
2023/09/23 06:39:01;;;;;;;8.13;2.90;;;;;;;-146.27;88.60;82579.03;5038444;28;20401;-69
2023/09/23 06:41:26;;;;;;;8.93;3.03;;;;;;;-146.27;88.30;82562.97;5039874;28;20445;-70
2023/09/23 06:43:52;;;;;;;6.70;2.97;;;;;;;-146.27;88.35;82540.88;5043664;28;20036;-69
2023/09/23 06:46:17;;;;;;;8.43;2.53;;;;;;;-146.27;88.33;82548.91;5046974;28;20074;-68
2023/09/23 06:48:43;;;;;;;11.10;3.05;;;;;;;-146.27;88.32;82520.78;5038201;28;20104;-68
2023/09/23 06:51:09;;;;;;;11.40;3.38;;;;;;;-146.27;88.58;82512.75;5044605;28;20048;-67
2023/09/23 06:53:34;;;;;;;8.32;3.25;;;;;;;-146.27;88.59;82542.88;5038308;28;21748;-69
2023/09/23 06:56:00;;;;;;;12.07;3.17;;;;;;;-146.27;88.60;82476.59;5045165;28;20029;-68
2023/09/23 06:58:25;;;;;;;8.75;3.03;;;;;;;-146.27;88.52;82508.72;5045408;28;20500;-68
2023/09/23 07:00:51;;;;;;;9.57;3.38;;;;;;;-146.27;88.35;82464.53;5044832;28;20546;-67
2023/09/23 07:03:16;;;;;;;6.57;3.15;;;;;;;-146.27;88.51;82498.69;5053688;28;20013;-69
2023/09/23 07:05:42;;;;;;;11.30;3.05;;;;;;;-146.27;88.68;82444.44;5054898;28;20029;-68
2023/09/23 07:08:08;;;;;;;7.90;2.70;;;;;;;-146.27;88.56;82496.69;5046948;28;20017;-68
2023/09/23 07:10:39;;;;;;;14.50;2.97;;;;;;;-146.27;88.53;82504.72;5044413;28;20028;-68
2023/09/23 07:13:05;;;;;;;6.13;2.42;;;;;;;-146.27;88.56;82492.66;5048788;28;20121;-70
2023/09/23 07:15:34;;;;;;;10.10;2.55;;;;;;;-146.27;88.14;82476.59;5043898;28;20501;-71
2023/09/23 07:17:59;;;;;;;6.72;4.05;;;;;;;-146.27;88.21;82514.75;5042448;28;20037;-72
2023/09/23 07:20:26;;;;;;;6.03;2.75;;;;;;;-146.27;88.37;82528.81;5043053;28;20033;-70
2023/09/23 07:22:52;;;;;;;6.60;3.60;;;;;;;-146.27;88.38;82490.66;5048589;28;20033;-69
2023/09/23 07:25:17;;;;;;;7.88;3.10;;;;;;;-146.27;88.17;82496.69;5047983;28;20496;-68
2023/09/23 07:27:42;;;;;;;6.50;3.35;;;;;;;-146.27;88.16;82468.56;5048917;28;20389;-69
2023/09/23 07:30:08;;;;;;;10.65;3.38;;;;;;;-146.27;88.48;82476.59;5039814;28;20101;-71
2023/09/23 07:32:33;;;;;;;9.23;3.53;;;;;;;-146.27;88.62;82480.59;5052986;28;20445;-71
2023/09/23 07:34:59;;;;;;;8.20;3.67;;;;;;;-146.27;88.38;82506.72;5056491;28;20036;-69
2023/09/23 07:37:24;;;;;;;7.55;3.53;;;;;;;-146.27;88.33;82446.47;5047046;28;20108;-69
2023/09/23 07:39:50;;;;;;;9.90;3.45;;;;;;;-146.27;88.45;82492.66;5038923;28;20539;-68
2023/09/23 07:42:15;;;;;;;11.95;3.38;;;;;;;-146.27;88.36;82408.28;5034759;28;20033;-69
2023/09/23 07:44:41;;;;;;;12.48;3.90;;;;;;;-146.27;88.75;82442.44;5034005;28;20026;-70
2023/09/23 07:47:07;;;;;;;10.75;3.80;;;;;;;-146.27;88.82;82400.25;5040748;28;20369;-70
2023/09/23 07:49:34;;;;;;;8.35;3.88;;;;;;;-146.27;89.49;82500.69;5043088;28;20393;-70
2023/09/23 07:51:59;;;;;;;7.40;3.67;;;;;;;-146.27;89.18;82472.56;5040158;28;20051;-69
2023/09/23 07:54:24;;;;;;;10.63;4.00;;;;;;;-146.27;88.79;82380.16;5043477;28;20021;-69
2023/09/23 07:56:50;;;;;;;11.50;4.32;;;;;;;-146.27;89.45;82402.25;5047690;28;20452;-70
2023/09/23 07:59:15;;;;;;;9.23;3.42;;;;;;;-146.27;89.43;82388.22;5051190;28;20036;-70
2023/09/23 08:01:40;;;;;;;6.45;3.17;;;;;;;-146.27;89.51;82376.16;5042967;28;20025;-69
2023/09/23 08:04:06;;;;;;;8.90;3.53;;;;;;;-146.27;89.29;82354.06;5052099;28;20051;-69
2023/09/23 08:06:31;;;;;;;5.15;3.38;;;;;;;-146.27;89.02;82337.97;5050881;28;20025;-70
2023/09/23 08:08:57;;;;;;;8.52;3.40;;;;;;;-146.27;88.91;82317.91;5034842;28;20032;-70
2023/09/23 08:11:22;;;;;;;7.57;2.72;;;;;;;-146.27;88.40;82337.97;5045313;28;20429;-68
2023/09/23 08:13:48;;;;;;;6.55;2.45;;;;;;;-146.27;88.24;82317.91;5038580;28;20477;-67
2023/09/23 08:16:14;;;;;;;8.05;2.30;;;;;;;-146.27;87.91;82263.66;5051044;28;20512;-67
2023/09/23 08:18:39;;;;;;;8.00;2.10;;;;;;;-146.27;87.13;82249.59;5041428;28;20060;-67
2023/09/23 08:21:06;;;;;;;5.78;2.45;;;;;;;-146.27;86.79;82177.28;5037729;28;20017;-68
2023/09/23 08:23:31;;;;;;;16.30;4.63;;;;;;;-146.27;86.46;82169.25;5049617;28;20036;-68
2023/09/23 08:25:56;;;;;;;4.13;1.90;;;;;;;-146.27;85.20;82185.31;5039140;28;20041;-67
2023/09/23 08:28:22;;;;;;;7.30;1.90;;;;;;;-146.27;84.69;82163.22;5044076;28;20031;-68
2023/09/23 08:30:50;;;;;;;3.13;1.60;;;;;;;-146.27;83.28;82161.22;5045739;28;20029;-67
2023/09/23 08:33:15;;;;;;;5.38;1.65;;;;;;;-146.27;83.36;82163.22;5033733;28;20037;-68
2023/09/23 08:35:42;;;;;;;4.15;1.67;;;;;;;-146.27;82.51;82175.28;5051609;28;20051;-66
2023/09/23 08:38:08;;;;;;;6.53;1.77;;;;;;;-146.27;82.06;82191.34;5038712;28;20392;-66
2023/09/23 08:40:36;;;;;;;2.67;1.33;;;;;;;-146.27;82.85;82185.31;5037392;28;20036;-66
2023/09/23 08:43:04;;;;;;;5.53;1.73;;;;;;;-146.27;81.71;82197.38;5040122;28;20627;-66
2023/09/23 08:45:31;;;;;;;6.43;2.13;;;;;;;-146.27;82.27;82147.16;5050984;28;20354;-66
2023/09/23 08:48:01;;;;;;;1.60;1.23;;;;;;;-146.27;81.43;82183.31;5034737;28;20213;-68
2023/09/23 08:50:27;;;;;;;4.10;1.85;;;;;;;-146.27;81.24;82241.56;5044382;28;20021;-68
2023/09/23 08:52:54;;;;;;;5.13;1.60;;;;;;;-146.27;80.71;82125.06;5036638;28;20124;-67
2023/09/23 08:55:21;;;;;;;3.78;1.38;;;;;;;-146.27;80.12;82201.38;5033630;28;20491;-68
2023/09/23 08:57:47;;;;;;;2.38;1.38;;;;;;;-146.27;80.03;82177.28;5037433;28;20477;-69
2023/09/23 09:00:17;;;;;;;7.43;1.48;;;;;;;-146.27;80.37;82143.13;5040072;28;20036;-70
2023/09/23 09:02:42;;;;;;;7.93;1.30;;;;;;;-146.27;80.32;82185.31;5038197;28;20036;-70
2023/09/23 09:05:09;;;;;;;5.13;1.40;;;;;;;-146.27;80.26;82207.41;5049075;28;20037;-67
2023/09/23 09:07:35;;;;;;;4.35;1.13;;;;;;;-146.27;80.81;82215.44;5050918;28;20047;-67
2023/09/23 09:10:02;;;;;;;3.40;0.80;;;;;;;-146.27;81.29;82203.41;5050806;28;20382;-69
2023/09/23 09:12:28;;;;;;;6.70;1.55;;;;;;;-146.27;80.80;82239.56;5048520;28;20056;-68
2023/09/23 09:15:01;;;;;;;8.13;2.05;;;;;;;-146.27;80.62;82195.38;5048120;28;20391;-68
2023/09/23 09:17:26;;;;;;;2.30;0.70;;;;;;;-146.27;80.70;82195.38;5045564;28;20021;-68
2023/09/23 09:19:52;;;;;;;4.75;1.05;;;;;;;-146.27;80.81;82229.50;5048493;28;20389;-69
2023/09/23 09:22:19;;;;;;;2.72;0.60;;;;;;;-146.27;80.40;82241.56;5047195;28;20083;-66
2023/09/23 09:24:46;;;;;;;4.68;0.70;;;;;;;-146.27;79.99;82255.63;5044892;28;20029;-68
2023/09/23 09:27:14;;;;;;;5.28;0.90;;;;;;;-146.27;79.88;82301.81;5047051;28;20029;-68
2023/09/23 09:29:41;;;;;;;2.00;0.60;;;;;;;-146.27;80.09;82376.16;5046005;28;20031;-68
2023/09/23 09:32:08;;;;;;;3.97;0.90;;;;;;;-146.27;79.94;82235.53;5047304;28;20056;-67
2023/09/23 09:34:39;;;;;;;2.75;0.68;;;;;;;-146.27;79.85;82211.44;5038973;28;20019;-68
2023/09/23 09:37:06;;;;;;;8.70;0.73;;;;;;;-146.27;80.14;82151.16;5043809;28;20466;-68
2023/09/23 09:39:36;;;;;;;4.22;1.00;;;;;;;-146.27;80.60;82239.56;5041385;28;20501;-68
2023/09/23 09:42:04;;;;;;;3.00;0.63;;;;;;;-146.27;80.48;82241.56;5040186;28;20055;-67
2023/09/23 09:44:30;;;;;;;3.30;0.65;;;;;;;-146.27;80.22;82245.59;5044315;28;20440;-67
2023/09/23 09:46:56;;;;;;;1.52;1.10;;;;;;;-146.27;80.72;82283.75;5032173;28;20029;-72
2023/09/23 09:49:22;;;;;;;3.85;0.73;;;;;;;-146.27;80.62;82227.50;5025225;28;20048;-68
2023/09/23 09:51:49;;;;;;;1.40;0.52;;;;;;;-146.27;80.55;82187.31;5033673;28;20033;-69
2023/09/23 09:54:18;;;;;;;1.35;0.85;;;;;;;-146.27;80.71;82201.38;5037737;28;20032;-68
2023/09/23 09:56:46;;;;;;;5.53;1.30;;;;;;;-146.27;80.84;82139.13;5043051;28;20060;-68
2023/09/23 09:59:29;;;;;;;2.65;1.05;;;;;;;-146.27;80.84;82125.06;5045187;28;20530;-67
2023/09/23 10:01:59;;;;;;;3.83;1.17;;;;;;;-146.27;80.94;82141.13;5042216;28;20139;-68
2023/09/23 10:04:32;;;;;;;5.38;1.10;;;;;;;-146.27;81.01;82115.00;5039494;28;20025;-70
2023/09/23 10:06:58;;;;;;;2.35;1.02;;;;;;;-146.27;80.83;82098.94;5032960;28;20035;-68
2023/09/23 10:09:31;;;;;;;7.05;1.65;;;;;;;-146.27;81.13;82068.81;5040958;28;20459;-70
2023/09/23 10:11:59;;;;;;;5.30;1.70;;;;;;;-146.27;80.76;82127.06;5031431;28;20501;-69
2023/09/23 10:14:26;;;;;;;4.00;1.40;;;;;;;-146.27;80.67;82090.91;5031866;28;20119;-69
2023/09/23 10:16:59;;;;;;;5.32;1.48;;;;;;;-146.27;80.56;82010.56;5037999;28;20556;-69
2023/09/23 10:19:37;;;;;;;8.50;1.40;;;;;;;-146.27;81.27;82143.13;5035178;28;20056;-67
2023/09/23 10:22:11;;;;;;;6.85;1.40;;;;;;;-146.27;82.64;82187.31;5032670;28;20088;-70
2023/09/23 10:24:36;;;;;;;14.00;4.53;;;;;;;-146.27;82.41;82151.16;5032051;28;20029;-68
2023/09/23 10:27:10;;;;;;;5.05;1.38;;;;;;;-146.27;82.24;82082.88;5020676;28;20048;-68
2023/09/23 10:29:47;;;;;;;6.10;1.70;;;;;;;-146.27;82.08;82111.00;5024863;28;20187;-68
2023/09/23 10:32:14;;;;;;;7.97;1.48;;;;;;;-146.27;81.82;82004.53;5017512;28;20037;-69
2023/09/23 10:34:52;;;;;;;12.10;2.67;;;;;;;-146.27;80.78;82088.91;5025334;28;20028;-68
2023/09/23 10:37:32;;;;;;;6.93;1.10;;;;;;;-146.27;79.75;82026.63;5029336;28;20604;-68
2023/09/23 10:40:09;;;;;;;4.18;1.13;;;;;;;-146.27;79.34;81946.28;5015153;28;20053;-69
2023/09/23 10:42:35;;;;;;;6.63;1.02;;;;;;;-146.27;79.62;82018.59;5031742;28;20029;-69
2023/09/23 10:45:01;;;;;;;6.72;1.00;;;;;;;-146.27;78.78;81898.09;5018201;28;20034;-67
2023/09/23 10:47:27;;;;;;;4.82;0.90;;;;;;;-146.27;78.33;81932.22;5020037;28;20040;-69
2023/09/23 10:49:53;;;;;;;4.38;0.82;;;;;;;-146.27;77.63;81914.16;5023910;28;20034;-69
2023/09/23 10:52:20;;;;;;;7.57;1.15;;;;;;;-146.27;77.66;81865.94;5012430;28;20041;-69
2023/09/23 10:54:47;;;;;;;7.20;0.80;;;;;;;-146.27;77.21;81771.53;5023271;28;20104;-70
2023/09/23 10:57:13;;;;;;;8.93;1.02;;;;;;;-146.27;77.99;81845.88;5020258;28;20025;-69
2023/09/23 10:59:39;;;;;;;4.82;1.05;;;;;;;-146.27;77.23;81711.28;5011639;28;20089;-69
2023/09/23 11:02:05;;;;;;;5.50;0.90;;;;;;;-146.27;76.55;81781.59;5023734;28;20033;-69
2023/09/23 11:04:31;;;;;;;2.83;0.95;;;;;;;-146.27;76.62;81769.53;5030455;28;20113;-69
2023/09/23 11:06:56;;;;;;;3.10;1.20;;;;;;;-146.27;76.67;81807.69;5016641;28;20033;-68
2023/09/23 11:09:22;;;;;;;4.25;1.40;;;;;;;-146.27;76.75;81827.78;5026377;28;20025;-69
2023/09/23 11:11:48;;;;;;;6.57;0.80;;;;;;;-146.27;75.24;81845.88;5028841;28;20059;-70
2023/09/23 11:14:14;;;;;;;2.80;0.52;;;;;;;-146.27;74.75;81853.91;5031614;28;20136;-69